DAL1983 KATL-MZBZ
Flight info
| Callsign | DAL1983 |
|---|---|
| Flight time | 2h 40m |
| Altitude | 37000 |
| Route | BANNG3 LUCKK DCT BULZI DCT PLYER/N0456F360 DCT KNOST M219 NAVVL L465 SHARQ UM463 WALKY UB879 CUN UB881 CZM UB764 BZE |
| Aircraft | A321/M-SDE3FGHIRWY/LB1 |
Departure
| Time | 2026-04-10 14:23 |
|---|---|
| Airport | Hartsfield Jackson Atlanta International Airport (KATL) |
Arrival
| Time | 2026-04-10 17:04 |
|---|---|
| Airport | Philip S. W. Goldson International Airport (MZBZ) |
| Time | Latitude | Longitude | Altitude | Speed | Heading |
|---|---|---|---|---|---|
| 2026-04-10 14:05 | 33.64399 | -84.42631 | 1009 ft | 0 kts | 90° |
| 2026-04-10 14:11 | 33.64399 | -84.42639 | 1019 ft | 4 kts | 90° |
| 2026-04-10 14:11 | 33.64399 | -84.42670 | 1019 ft | 4 kts | 90° |
| 2026-04-10 14:11 | 33.64399 | -84.42702 | 1019 ft | 4 kts | 90° |
| 2026-04-10 14:11 | 33.64399 | -84.42734 | 1020 ft | 4 kts | 90° |
| 2026-04-10 14:12 | 33.64399 | -84.42746 | 1020 ft | 0 kts | 90° |
| 2026-04-10 14:15 | 33.64392 | -84.42735 | 1020 ft | 4 kts | 133° |
| 2026-04-10 14:15 | 33.64334 | -84.42732 | 1018 ft | 15 kts | 181° |
| 2026-04-10 14:15 | 33.64223 | -84.42734 | 1015 ft | 16 kts | 180° |
| 2026-04-10 14:15 | 33.64124 | -84.42733 | 1013 ft | 14 kts | 180° |
| 2026-04-10 14:16 | 33.64032 | -84.42733 | 1012 ft | 12 kts | 180° |
| 2026-04-10 14:16 | 33.63950 | -84.42733 | 1009 ft | 11 kts | 180° |
| 2026-04-10 14:16 | 33.63880 | -84.42733 | 1009 ft | 10 kts | 180° |
| 2026-04-10 14:16 | 33.63816 | -84.42733 | 1008 ft | 8 kts | 179° |
| 2026-04-10 14:17 | 33.63764 | -84.42732 | 1008 ft | 7 kts | 179° |
| 2026-04-10 14:17 | 33.63708 | -84.42733 | 1008 ft | 12 kts | 183° |
| 2026-04-10 14:17 | 33.63619 | -84.42769 | 1007 ft | 14 kts | 205° |
| 2026-04-10 14:17 | 33.63582 | -84.42865 | 1006 ft | 14 kts | 269° |
| 2026-04-10 14:18 | 33.63581 | -84.42978 | 1007 ft | 13 kts | 270° |
| 2026-04-10 14:18 | 33.63582 | -84.43106 | 1008 ft | 16 kts | 270° |
| 2026-04-10 14:18 | 33.63582 | -84.43235 | 1009 ft | 15 kts | 270° |
| 2026-04-10 14:18 | 33.63581 | -84.43370 | 1009 ft | 16 kts | 269° |
| 2026-04-10 14:19 | 33.63582 | -84.43489 | 1012 ft | 13 kts | 270° |
| 2026-04-10 14:19 | 33.63582 | -84.43582 | 1015 ft | 12 kts | 269° |
| 2026-04-10 14:19 | 33.63582 | -84.43713 | 1018 ft | 17 kts | 270° |
| 2026-04-10 14:19 | 33.63581 | -84.43843 | 1019 ft | 15 kts | 270° |
| 2026-04-10 14:20 | 33.63581 | -84.43956 | 1021 ft | 12 kts | 270° |
| 2026-04-10 14:20 | 33.63581 | -84.44041 | 1021 ft | 8 kts | 270° |
| 2026-04-10 14:20 | 33.63582 | -84.44106 | 1023 ft | 8 kts | 271° |
| 2026-04-10 14:20 | 33.63582 | -84.44164 | 1023 ft | 6 kts | 270° |
| 2026-04-10 14:21 | 33.63582 | -84.44241 | 1026 ft | 11 kts | 269° |
| 2026-04-10 14:21 | 33.63581 | -84.44332 | 1025 ft | 11 kts | 269° |
| 2026-04-10 14:21 | 33.63580 | -84.44418 | 1025 ft | 10 kts | 269° |
| 2026-04-10 14:21 | 33.63557 | -84.44480 | 1026 ft | 9 kts | 213° |
| 2026-04-10 14:22 | 33.63493 | -84.44487 | 1024 ft | 9 kts | 166° |
| 2026-04-10 14:22 | 33.63470 | -84.44434 | 1025 ft | 7 kts | 94° |
| 2026-04-10 14:22 | 33.63470 | -84.44342 | 1026 ft | 28 kts | 90° |
| 2026-04-10 14:22 | 33.63469 | -84.43723 | 1017 ft | 118 kts | 89° |
| 2026-04-10 14:23 | 33.63473 | -84.42424 | 1065 ft | 180 kts | 90° |
| 2026-04-10 14:23 | 33.63473 | -84.40922 | 1926 ft | 183 kts | 91° |
| 2026-04-10 14:23 | 33.63473 | -84.39393 | 2935 ft | 184 kts | 91° |
| 2026-04-10 14:23 | 33.63326 | -84.37975 | 3568 ft | 182 kts | 108° |
| 2026-04-10 14:24 | 33.62872 | -84.36536 | 3951 ft | 188 kts | 110° |
| 2026-04-10 14:24 | 33.62421 | -84.35033 | 4315 ft | 195 kts | 109° |
| 2026-04-10 14:24 | 33.61935 | -84.33472 | 4624 ft | 207 kts | 109° |
| 2026-04-10 14:24 | 33.61401 | -84.31782 | 4855 ft | 225 kts | 110° |
| 2026-04-10 14:25 | 33.60788 | -84.29932 | 5108 ft | 252 kts | 112° |
| 2026-04-10 14:25 | 33.59682 | -84.28217 | 5532 ft | 272 kts | 146° |
| 2026-04-10 14:25 | 33.57881 | -84.27498 | 6277 ft | 278 kts | 173° |
| 2026-04-10 14:25 | 33.55944 | -84.27365 | 7145 ft | 279 kts | 179° |
| 2026-04-10 14:26 | 33.53992 | -84.27392 | 7948 ft | 283 kts | 181° |
| 2026-04-10 14:26 | 33.52012 | -84.27467 | 8725 ft | 287 kts | 181° |
| 2026-04-10 14:26 | 33.50001 | -84.27542 | 9468 ft | 291 kts | 181° |
| 2026-04-10 14:26 | 33.47967 | -84.27596 | 10224 ft | 295 kts | 180° |
| 2026-04-10 14:27 | 33.45900 | -84.27675 | 10940 ft | 299 kts | 186° |
| 2026-04-10 14:27 | 33.43818 | -84.28157 | 11326 ft | 315 kts | 193° |
| 2026-04-10 14:27 | 33.41611 | -84.28804 | 11480 ft | 338 kts | 193° |
| 2026-04-10 14:27 | 33.39257 | -84.29505 | 11721 ft | 356 kts | 193° |
| 2026-04-10 14:28 | 33.36830 | -84.30230 | 12320 ft | 362 kts | 193° |
| 2026-04-10 14:28 | 33.34382 | -84.30956 | 13058 ft | 363 kts | 193° |
| 2026-04-10 14:28 | 33.31924 | -84.31680 | 13812 ft | 365 kts | 193° |
| 2026-04-10 14:28 | 33.29452 | -84.32405 | 14507 ft | 367 kts | 193° |
| 2026-04-10 14:29 | 33.26961 | -84.33140 | 15100 ft | 371 kts | 193° |
| 2026-04-10 14:29 | 33.24443 | -84.33882 | 15645 ft | 375 kts | 194° |
| 2026-04-10 14:29 | 33.21886 | -84.34630 | 16161 ft | 380 kts | 194° |
| 2026-04-10 14:29 | 33.19299 | -84.35385 | 16681 ft | 386 kts | 194° |
| 2026-04-10 14:30 | 33.16675 | -84.36148 | 17185 ft | 391 kts | 194° |
| 2026-04-10 14:30 | 33.14013 | -84.36920 | 17683 ft | 396 kts | 194° |
| 2026-04-10 14:30 | 33.11357 | -84.37689 | 18185 ft | 400 kts | 194° |
| 2026-04-10 14:30 | 33.08634 | -84.38481 | 18704 ft | 405 kts | 194° |
| 2026-04-10 14:31 | 33.05886 | -84.39281 | 19162 ft | 408 kts | 194° |
| 2026-04-10 14:31 | 33.03120 | -84.40089 | 19636 ft | 411 kts | 195° |
| 2026-04-10 14:31 | 33.00334 | -84.40906 | 20105 ft | 413 kts | 195° |
| 2026-04-10 14:31 | 32.97531 | -84.41708 | 20565 ft | 416 kts | 192° |
| 2026-04-10 14:32 | 32.94645 | -84.42107 | 21017 ft | 420 kts | 182° |
| 2026-04-10 14:32 | 32.91707 | -84.42064 | 21478 ft | 423 kts | 180° |
| 2026-04-10 14:32 | 32.88753 | -84.41993 | 21933 ft | 426 kts | 180° |
| 2026-04-10 14:32 | 32.85777 | -84.41926 | 22377 ft | 429 kts | 180° |
| 2026-04-10 14:33 | 32.82781 | -84.41862 | 22820 ft | 432 kts | 180° |
| 2026-04-10 14:33 | 32.79770 | -84.41803 | 23264 ft | 435 kts | 180° |
| 2026-04-10 14:33 | 32.76731 | -84.41746 | 23707 ft | 438 kts | 180° |
| 2026-04-10 14:33 | 32.73681 | -84.41687 | 24109 ft | 441 kts | 180° |
| 2026-04-10 14:34 | 32.70605 | -84.41627 | 24475 ft | 443 kts | 180° |
| 2026-04-10 14:34 | 32.67517 | -84.41563 | 24844 ft | 445 kts | 181° |
| 2026-04-10 14:34 | 32.64408 | -84.41499 | 25200 ft | 448 kts | 181° |
| 2026-04-10 14:34 | 32.61288 | -84.41436 | 25567 ft | 449 kts | 181° |
| 2026-04-10 14:35 | 32.58156 | -84.41376 | 25925 ft | 452 kts | 181° |
| 2026-04-10 14:35 | 32.55002 | -84.41315 | 26285 ft | 454 kts | 181° |
| 2026-04-10 14:35 | 32.51840 | -84.41250 | 26648 ft | 456 kts | 181° |
| 2026-04-10 14:35 | 32.48663 | -84.41186 | 26995 ft | 458 kts | 181° |
| 2026-04-10 14:36 | 32.45470 | -84.41123 | 27340 ft | 460 kts | 181° |
| 2026-04-10 14:36 | 32.42267 | -84.41061 | 27677 ft | 462 kts | 181° |
| 2026-04-10 14:36 | 32.39048 | -84.41000 | 28004 ft | 463 kts | 181° |
| 2026-04-10 14:36 | 32.35819 | -84.40938 | 28319 ft | 465 kts | 181° |
| 2026-04-10 14:37 | 32.32577 | -84.40871 | 28646 ft | 467 kts | 181° |
| 2026-04-10 14:37 | 32.29323 | -84.40682 | 28955 ft | 471 kts | 175° |
| 2026-04-10 14:37 | 32.26070 | -84.40127 | 29262 ft | 473 kts | 173° |
| 2026-04-10 14:37 | 32.22809 | -84.39552 | 29573 ft | 475 kts | 173° |
| 2026-04-10 14:38 | 32.19532 | -84.38973 | 29891 ft | 476 kts | 173° |
| 2026-04-10 14:38 | 32.16259 | -84.38396 | 30318 ft | 475 kts | 174° |
| 2026-04-10 14:38 | 32.12997 | -84.37825 | 30698 ft | 473 kts | 174° |
| 2026-04-10 14:38 | 32.09741 | -84.37256 | 31050 ft | 472 kts | 174° |
| 2026-04-10 14:39 | 32.06494 | -84.36688 | 31403 ft | 472 kts | 174° |
| 2026-04-10 14:39 | 32.03253 | -84.36121 | 31762 ft | 471 kts | 174° |
| 2026-04-10 14:39 | 32.00014 | -84.35554 | 32120 ft | 470 kts | 174° |
| 2026-04-10 14:39 | 31.96941 | -84.35013 | 32464 ft | 469 kts | 174° |
| 2026-04-10 14:40 | 31.93720 | -84.34447 | 32822 ft | 468 kts | 174° |
| 2026-04-10 14:40 | 31.90496 | -84.33881 | 33179 ft | 467 kts | 174° |
| 2026-04-10 14:40 | 31.87284 | -84.33319 | 33538 ft | 467 kts | 174° |
| 2026-04-10 14:40 | 31.84074 | -84.32758 | 33896 ft | 466 kts | 175° |
| 2026-04-10 14:41 | 31.80872 | -84.32201 | 34252 ft | 465 kts | 174° |
| 2026-04-10 14:41 | 31.77671 | -84.31645 | 34577 ft | 464 kts | 175° |
| 2026-04-10 14:41 | 31.74481 | -84.31091 | 34869 ft | 464 kts | 175° |
| 2026-04-10 14:41 | 31.71289 | -84.30539 | 35178 ft | 463 kts | 175° |
| 2026-04-10 14:42 | 31.68107 | -84.29992 | 35372 ft | 463 kts | 175° |
| 2026-04-10 14:42 | 31.61781 | -84.28900 | 35421 ft | 458 kts | 175° |
| 2026-04-10 14:43 | 31.55488 | -84.27806 | 35419 ft | 457 kts | 175° |
| 2026-04-10 14:43 | 31.49246 | -84.26722 | 35419 ft | 456 kts | 175° |
| 2026-04-10 14:44 | 31.42966 | -84.25642 | 35422 ft | 456 kts | 175° |
| 2026-04-10 14:44 | 31.36680 | -84.24569 | 35400 ft | 456 kts | 175° |
| 2026-04-10 14:45 | 31.30396 | -84.23484 | 35453 ft | 458 kts | 175° |
| 2026-04-10 14:45 | 31.27243 | -84.22936 | 35707 ft | 458 kts | 175° |
| 2026-04-10 14:45 | 31.24086 | -84.22390 | 35985 ft | 458 kts | 175° |
| 2026-04-10 14:45 | 31.20938 | -84.21849 | 36265 ft | 458 kts | 175° |
| 2026-04-10 14:46 | 31.17790 | -84.21310 | 36561 ft | 457 kts | 176° |
| 2026-04-10 14:46 | 31.14644 | -84.20772 | 36821 ft | 456 kts | 176° |
| 2026-04-10 14:46 | 31.11507 | -84.20235 | 37081 ft | 456 kts | 176° |
| 2026-04-10 14:46 | 31.08370 | -84.19699 | 37317 ft | 456 kts | 176° |
| 2026-04-10 14:47 | 31.05229 | -84.19163 | 37391 ft | 456 kts | 176° |
| 2026-04-10 14:47 | 30.98957 | -84.18092 | 37395 ft | 456 kts | 176° |
| 2026-04-10 14:48 | 30.92683 | -84.17024 | 37390 ft | 456 kts | 176° |
| 2026-04-10 14:48 | 30.86409 | -84.15949 | 37391 ft | 456 kts | 176° |
| 2026-04-10 14:49 | 30.80133 | -84.14876 | 37383 ft | 456 kts | 176° |
| 2026-04-10 14:49 | 30.73848 | -84.13802 | 37386 ft | 457 kts | 176° |
| 2026-04-10 14:50 | 30.67554 | -84.12730 | 37378 ft | 457 kts | 176° |
| 2026-04-10 14:50 | 30.61257 | -84.11664 | 37366 ft | 457 kts | 176° |
| 2026-04-10 14:51 | 30.54957 | -84.10602 | 37365 ft | 458 kts | 176° |
| 2026-04-10 14:51 | 30.48647 | -84.09532 | 37364 ft | 458 kts | 176° |
| 2026-04-10 14:52 | 30.42337 | -84.08465 | 37360 ft | 459 kts | 177° |
| 2026-04-10 14:52 | 30.36074 | -84.06884 | 37360 ft | 467 kts | 164° |
| 2026-04-10 14:53 | 30.30105 | -84.03805 | 37353 ft | 471 kts | 160° |
| 2026-04-10 14:53 | 30.24142 | -84.00660 | 37350 ft | 471 kts | 160° |
| 2026-04-10 14:54 | 30.18212 | -83.97543 | 37347 ft | 472 kts | 160° |
| 2026-04-10 14:54 | 30.12234 | -83.94402 | 37353 ft | 472 kts | 160° |
| 2026-04-10 14:55 | 30.06249 | -83.91267 | 37351 ft | 473 kts | 160° |
| 2026-04-10 14:55 | 30.00259 | -83.88131 | 37355 ft | 473 kts | 160° |
| 2026-04-10 14:56 | 29.94261 | -83.85002 | 37353 ft | 473 kts | 161° |
| 2026-04-10 14:56 | 29.88257 | -83.81873 | 37348 ft | 474 kts | 161° |
| 2026-04-10 14:57 | 29.82248 | -83.78746 | 37348 ft | 474 kts | 161° |
| 2026-04-10 14:57 | 29.76238 | -83.75612 | 37341 ft | 474 kts | 161° |
| 2026-04-10 14:58 | 29.70228 | -83.72480 | 37332 ft | 475 kts | 161° |
| 2026-04-10 14:58 | 29.64212 | -83.69340 | 37336 ft | 475 kts | 161° |
| 2026-04-10 14:59 | 29.58187 | -83.66213 | 37337 ft | 475 kts | 161° |
| 2026-04-10 14:59 | 29.52196 | -83.63133 | 37331 ft | 475 kts | 161° |
| 2026-04-10 15:00 | 29.46162 | -83.60019 | 37331 ft | 476 kts | 161° |
| 2026-04-10 15:00 | 29.40132 | -83.56897 | 37326 ft | 476 kts | 161° |
| 2026-04-10 15:01 | 29.34095 | -83.53764 | 37334 ft | 476 kts | 161° |
| 2026-04-10 15:01 | 29.28059 | -83.50658 | 37329 ft | 476 kts | 161° |
| 2026-04-10 15:02 | 29.23038 | -83.48086 | 37328 ft | 476 kts | 161° |
| 2026-04-10 15:02 | 29.16993 | -83.44980 | 37323 ft | 476 kts | 161° |
| 2026-04-10 15:03 | 29.10944 | -83.41870 | 37320 ft | 476 kts | 161° |
| 2026-04-10 15:03 | 29.04899 | -83.38765 | 37324 ft | 476 kts | 161° |
| 2026-04-10 15:04 | 28.98840 | -83.35702 | 37310 ft | 474 kts | 165° |
| 2026-04-10 15:04 | 28.92543 | -83.34064 | 37308 ft | 458 kts | 183° |
| 2026-04-10 15:05 | 28.83167 | -83.34655 | 37305 ft | 449 kts | 191° |
| 2026-04-10 15:05 | 28.76938 | -83.35241 | 37307 ft | 449 kts | 191° |
| 2026-04-10 15:06 | 28.70706 | -83.35817 | 37312 ft | 450 kts | 191° |
| 2026-04-10 15:06 | 28.64470 | -83.36393 | 37315 ft | 450 kts | 191° |
| 2026-04-10 15:07 | 28.58234 | -83.36960 | 37314 ft | 450 kts | 191° |
| 2026-04-10 15:07 | 28.51999 | -83.37542 | 37312 ft | 449 kts | 191° |
| 2026-04-10 15:08 | 28.45767 | -83.38125 | 37313 ft | 449 kts | 191° |
| 2026-04-10 15:08 | 28.39540 | -83.38706 | 37315 ft | 449 kts | 192° |
| 2026-04-10 15:09 | 28.33355 | -83.39278 | 37315 ft | 449 kts | 192° |
| 2026-04-10 15:09 | 28.27130 | -83.39847 | 37312 ft | 449 kts | 192° |
| 2026-04-10 15:10 | 28.20904 | -83.40412 | 37311 ft | 449 kts | 192° |
| 2026-04-10 15:10 | 28.14685 | -83.40986 | 37311 ft | 448 kts | 192° |
| 2026-04-10 15:11 | 28.08475 | -83.41583 | 37305 ft | 445 kts | 196° |
| 2026-04-10 15:11 | 28.05504 | -83.42373 | 37304 ft | 433 kts | 207° |
| 2026-04-10 15:11 | 28.02808 | -83.43783 | 37304 ft | 422 kts | 218° |
| 2026-04-10 15:12 | 27.98523 | -83.48056 | 37299 ft | 405 kts | 238° |
| 2026-04-10 15:12 | 27.95942 | -83.53601 | 37297 ft | 397 kts | 251° |
| 2026-04-10 15:13 | 27.93832 | -83.59379 | 37292 ft | 398 kts | 250° |
| 2026-04-10 15:13 | 27.91696 | -83.65157 | 37298 ft | 398 kts | 250° |
| 2026-04-10 15:14 | 27.89556 | -83.70934 | 37301 ft | 398 kts | 250° |
| 2026-04-10 15:14 | 27.87414 | -83.76711 | 37314 ft | 398 kts | 250° |
| 2026-04-10 15:15 | 27.85274 | -83.82489 | 37307 ft | 398 kts | 250° |
| 2026-04-10 15:15 | 27.83138 | -83.88262 | 37308 ft | 398 kts | 250° |
| 2026-04-10 15:16 | 27.81000 | -83.94036 | 37308 ft | 398 kts | 250° |
| 2026-04-10 15:16 | 27.78854 | -83.99800 | 37297 ft | 398 kts | 250° |
| 2026-04-10 15:17 | 27.76703 | -84.05563 | 37302 ft | 398 kts | 250° |
| 2026-04-10 15:17 | 27.74557 | -84.11319 | 37302 ft | 398 kts | 250° |
| 2026-04-10 15:18 | 27.72428 | -84.17038 | 37302 ft | 398 kts | 250° |
| 2026-04-10 15:18 | 27.70285 | -84.22792 | 37293 ft | 397 kts | 250° |
| 2026-04-10 15:19 | 27.68131 | -84.28535 | 37296 ft | 397 kts | 250° |
| 2026-04-10 15:19 | 27.65979 | -84.34273 | 37298 ft | 397 kts | 250° |
| 2026-04-10 15:20 | 27.63822 | -84.40014 | 37295 ft | 397 kts | 250° |
| 2026-04-10 15:20 | 27.61668 | -84.45750 | 37295 ft | 397 kts | 250° |
| 2026-04-10 15:21 | 27.59500 | -84.51484 | 37293 ft | 397 kts | 250° |
| 2026-04-10 15:21 | 27.57339 | -84.57213 | 37299 ft | 397 kts | 250° |
| 2026-04-10 15:22 | 27.55182 | -84.62942 | 37295 ft | 397 kts | 250° |
| 2026-04-10 15:22 | 27.53015 | -84.68663 | 37293 ft | 397 kts | 250° |
| 2026-04-10 15:23 | 27.50710 | -84.74313 | 37291 ft | 401 kts | 242° |
| 2026-04-10 15:23 | 27.48997 | -84.76815 | 37289 ft | 408 kts | 231° |
| 2026-04-10 15:23 | 27.46811 | -84.78896 | 37284 ft | 417 kts | 220° |
| 2026-04-10 15:24 | 27.44220 | -84.80439 | 37280 ft | 428 kts | 208° |
| 2026-04-10 15:24 | 27.41417 | -84.81603 | 37275 ft | 429 kts | 207° |
| 2026-04-10 15:24 | 27.35807 | -84.83914 | 37268 ft | 430 kts | 207° |
| 2026-04-10 15:25 | 27.30229 | -84.86215 | 37264 ft | 430 kts | 207° |
| 2026-04-10 15:25 | 27.24599 | -84.88529 | 37273 ft | 431 kts | 207° |
| 2026-04-10 15:26 | 27.18967 | -84.90842 | 37272 ft | 431 kts | 207° |
| 2026-04-10 15:26 | 27.13333 | -84.93152 | 37275 ft | 431 kts | 207° |
| 2026-04-10 15:27 | 27.07692 | -84.95462 | 37276 ft | 432 kts | 207° |
| 2026-04-10 15:27 | 27.02052 | -84.97777 | 37274 ft | 431 kts | 207° |
| 2026-04-10 15:28 | 26.96417 | -85.00086 | 37270 ft | 431 kts | 207° |
| 2026-04-10 15:28 | 26.90776 | -85.02384 | 37272 ft | 431 kts | 207° |
| 2026-04-10 15:29 | 26.85145 | -85.04692 | 37270 ft | 431 kts | 207° |
| 2026-04-10 15:29 | 26.79508 | -85.06993 | 37269 ft | 431 kts | 207° |
| 2026-04-10 15:30 | 26.73872 | -85.09285 | 37269 ft | 431 kts | 207° |
| 2026-04-10 15:30 | 26.68240 | -85.11577 | 37262 ft | 430 kts | 207° |
| 2026-04-10 15:31 | 26.62614 | -85.13870 | 37261 ft | 430 kts | 207° |
| 2026-04-10 15:31 | 26.56991 | -85.16156 | 37254 ft | 430 kts | 207° |
| 2026-04-10 15:32 | 26.51363 | -85.18444 | 37250 ft | 430 kts | 207° |
| 2026-04-10 15:32 | 26.45740 | -85.20725 | 37247 ft | 430 kts | 207° |
| 2026-04-10 15:33 | 26.40114 | -85.22996 | 37246 ft | 431 kts | 205° |
| 2026-04-10 15:33 | 26.34117 | -85.24197 | 37242 ft | 444 kts | 193° |
| 2026-04-10 15:34 | 26.27963 | -85.24816 | 37240 ft | 444 kts | 193° |
| 2026-04-10 15:34 | 26.21846 | -85.25439 | 37241 ft | 444 kts | 193° |
| 2026-04-10 15:35 | 26.15691 | -85.26084 | 37233 ft | 444 kts | 193° |
| 2026-04-10 15:35 | 26.09543 | -85.26732 | 37236 ft | 444 kts | 193° |
| 2026-04-10 15:36 | 26.03388 | -85.27373 | 37234 ft | 444 kts | 193° |
| 2026-04-10 15:36 | 25.97242 | -85.28002 | 37228 ft | 444 kts | 193° |
| 2026-04-10 15:37 | 25.91099 | -85.28639 | 37225 ft | 444 kts | 193° |
| 2026-04-10 15:37 | 25.84951 | -85.29276 | 37225 ft | 444 kts | 193° |
| 2026-04-10 15:38 | 25.78800 | -85.29914 | 37223 ft | 444 kts | 193° |
| 2026-04-10 15:38 | 25.72646 | -85.30548 | 37226 ft | 445 kts | 193° |
| 2026-04-10 15:39 | 25.66482 | -85.31177 | 37222 ft | 445 kts | 192° |
| 2026-04-10 15:39 | 25.60326 | -85.31801 | 37226 ft | 444 kts | 192° |
| 2026-04-10 15:40 | 25.54168 | -85.32435 | 37218 ft | 444 kts | 193° |
| 2026-04-10 15:40 | 25.48013 | -85.33072 | 37218 ft | 444 kts | 192° |
| 2026-04-10 15:41 | 25.41902 | -85.33701 | 37214 ft | 444 kts | 192° |
| 2026-04-10 15:41 | 25.35794 | -85.34506 | 37206 ft | 436 kts | 200° |
| 2026-04-10 15:42 | 25.30284 | -85.36920 | 37204 ft | 420 kts | 216° |
| 2026-04-10 15:42 | 25.25219 | -85.40139 | 37198 ft | 420 kts | 216° |
| 2026-04-10 15:43 | 25.20140 | -85.43345 | 37195 ft | 421 kts | 216° |
| 2026-04-10 15:43 | 25.15055 | -85.46548 | 37190 ft | 421 kts | 216° |
| 2026-04-10 15:44 | 25.09720 | -85.49289 | 37188 ft | 432 kts | 202° |
| 2026-04-10 15:44 | 25.06736 | -85.49905 | 37186 ft | 441 kts | 191° |
| 2026-04-10 15:44 | 25.03643 | -85.49979 | 37188 ft | 447 kts | 187° |
| 2026-04-10 15:45 | 24.97425 | -85.49961 | 37180 ft | 447 kts | 187° |
| 2026-04-10 15:45 | 24.91202 | -85.49964 | 37185 ft | 447 kts | 187° |
| 2026-04-10 15:46 | 24.84977 | -85.49980 | 37180 ft | 447 kts | 187° |
| 2026-04-10 15:46 | 24.78749 | -85.49983 | 37176 ft | 448 kts | 187° |
| 2026-04-10 15:47 | 24.72516 | -85.49979 | 37176 ft | 448 kts | 187° |
| 2026-04-10 15:47 | 24.66283 | -85.49985 | 37186 ft | 448 kts | 187° |
| 2026-04-10 15:48 | 24.60050 | -85.49987 | 37184 ft | 448 kts | 187° |
| 2026-04-10 15:48 | 24.53816 | -85.49993 | 37187 ft | 448 kts | 187° |
| 2026-04-10 15:49 | 24.47577 | -85.49991 | 37191 ft | 448 kts | 187° |
| 2026-04-10 15:49 | 24.41335 | -85.49988 | 37190 ft | 449 kts | 187° |
| 2026-04-10 15:50 | 24.35092 | -85.49985 | 37193 ft | 448 kts | 187° |
| 2026-04-10 15:50 | 24.29905 | -85.49986 | 37191 ft | 448 kts | 187° |
| 2026-04-10 15:51 | 24.23670 | -85.49989 | 37188 ft | 448 kts | 187° |
| 2026-04-10 15:51 | 24.17438 | -85.49990 | 37181 ft | 448 kts | 187° |
| 2026-04-10 15:52 | 24.11227 | -85.49992 | 37182 ft | 447 kts | 187° |
| 2026-04-10 15:52 | 24.05000 | -85.49996 | 37181 ft | 447 kts | 187° |
| 2026-04-10 15:53 | 23.98779 | -85.50009 | 37182 ft | 446 kts | 188° |
| 2026-04-10 15:53 | 23.92588 | -85.50250 | 37178 ft | 444 kts | 190° |
| 2026-04-10 15:54 | 23.86423 | -85.50625 | 37177 ft | 444 kts | 190° |
| 2026-04-10 15:54 | 23.80254 | -85.50976 | 37176 ft | 444 kts | 190° |
| 2026-04-10 15:55 | 23.74082 | -85.51274 | 37174 ft | 444 kts | 189° |
| 2026-04-10 15:55 | 23.67908 | -85.51557 | 37168 ft | 444 kts | 189° |
| 2026-04-10 15:56 | 23.61779 | -85.51843 | 37169 ft | 444 kts | 189° |
| 2026-04-10 15:56 | 23.55617 | -85.52132 | 37166 ft | 443 kts | 189° |
| 2026-04-10 15:57 | 23.49451 | -85.52438 | 37166 ft | 443 kts | 189° |
| 2026-04-10 15:57 | 23.43293 | -85.52736 | 37161 ft | 443 kts | 189° |
| 2026-04-10 15:58 | 23.37134 | -85.53033 | 37157 ft | 443 kts | 189° |
| 2026-04-10 15:58 | 23.30970 | -85.53329 | 37153 ft | 443 kts | 189° |
| 2026-04-10 15:59 | 23.24814 | -85.53617 | 37153 ft | 443 kts | 189° |
| 2026-04-10 15:59 | 23.18655 | -85.53914 | 37148 ft | 443 kts | 190° |
| 2026-04-10 16:00 | 23.12505 | -85.54214 | 37148 ft | 443 kts | 189° |
| 2026-04-10 16:00 | 23.06348 | -85.54503 | 37150 ft | 443 kts | 189° |
| 2026-04-10 16:01 | 23.00195 | -85.54789 | 37148 ft | 443 kts | 189° |
| 2026-04-10 16:01 | 22.94046 | -85.55090 | 37146 ft | 442 kts | 189° |
| 2026-04-10 16:02 | 22.87889 | -85.55381 | 37141 ft | 443 kts | 189° |
| 2026-04-10 16:02 | 22.81739 | -85.55673 | 37140 ft | 442 kts | 189° |
| 2026-04-10 16:03 | 22.75591 | -85.55976 | 37139 ft | 442 kts | 189° |
| 2026-04-10 16:03 | 22.69441 | -85.56269 | 37135 ft | 442 kts | 190° |
| 2026-04-10 16:04 | 22.63291 | -85.56563 | 37138 ft | 442 kts | 189° |
| 2026-04-10 16:04 | 22.57146 | -85.56859 | 37145 ft | 442 kts | 189° |
| 2026-04-10 16:05 | 22.51038 | -85.57151 | 37139 ft | 442 kts | 189° |
| 2026-04-10 16:05 | 22.44890 | -85.57448 | 37140 ft | 442 kts | 189° |
| 2026-04-10 16:06 | 22.38743 | -85.57746 | 37140 ft | 442 kts | 189° |
| 2026-04-10 16:06 | 22.32594 | -85.58044 | 37149 ft | 442 kts | 189° |
| 2026-04-10 16:07 | 22.26685 | -85.59238 | 37131 ft | 425 kts | 208° |
| 2026-04-10 16:07 | 22.21773 | -85.62494 | 37129 ft | 409 kts | 227° |
| 2026-04-10 16:08 | 22.18138 | -85.67119 | 37125 ft | 404 kts | 237° |
| 2026-04-10 16:08 | 22.14742 | -85.71954 | 37133 ft | 404 kts | 237° |
| 2026-04-10 16:09 | 22.11343 | -85.76789 | 37136 ft | 405 kts | 236° |
| 2026-04-10 16:09 | 22.07943 | -85.81628 | 37135 ft | 405 kts | 236° |
| 2026-04-10 16:10 | 22.04539 | -85.86473 | 37138 ft | 405 kts | 236° |
| 2026-04-10 16:10 | 22.01135 | -85.91323 | 37126 ft | 406 kts | 236° |
| 2026-04-10 16:11 | 21.97724 | -85.96172 | 37125 ft | 406 kts | 236° |
| 2026-04-10 16:11 | 21.93767 | -86.00563 | 37130 ft | 412 kts | 226° |
| 2026-04-10 16:12 | 21.89472 | -86.04600 | 37128 ft | 413 kts | 226° |
| 2026-04-10 16:13 | 21.82997 | -86.10713 | 37126 ft | 413 kts | 226° |
| 2026-04-10 16:13 | 21.78669 | -86.14789 | 37121 ft | 413 kts | 226° |
| 2026-04-10 16:14 | 21.74340 | -86.18856 | 37125 ft | 414 kts | 226° |
| 2026-04-10 16:14 | 21.69999 | -86.22926 | 37130 ft | 414 kts | 226° |
| 2026-04-10 16:15 | 21.65749 | -86.26911 | 37131 ft | 415 kts | 226° |
| 2026-04-10 16:15 | 21.61397 | -86.30992 | 37126 ft | 415 kts | 226° |
| 2026-04-10 16:16 | 21.57046 | -86.35071 | 37128 ft | 415 kts | 226° |
| 2026-04-10 16:16 | 21.52684 | -86.39149 | 37128 ft | 416 kts | 225° |
| 2026-04-10 16:17 | 21.48777 | -86.42800 | 37129 ft | 416 kts | 225° |
| 2026-04-10 16:17 | 21.44413 | -86.46882 | 37131 ft | 416 kts | 225° |
| 2026-04-10 16:18 | 21.40047 | -86.50964 | 37131 ft | 417 kts | 225° |
| 2026-04-10 16:18 | 21.35667 | -86.55043 | 37133 ft | 417 kts | 225° |
| 2026-04-10 16:19 | 21.31282 | -86.59123 | 37135 ft | 417 kts | 225° |
| 2026-04-10 16:19 | 21.26897 | -86.63207 | 37135 ft | 417 kts | 225° |
| 2026-04-10 16:20 | 21.22514 | -86.67291 | 37139 ft | 417 kts | 225° |
| 2026-04-10 16:20 | 21.18127 | -86.71376 | 37142 ft | 418 kts | 225° |
| 2026-04-10 16:21 | 21.13733 | -86.75455 | 37147 ft | 418 kts | 225° |
| 2026-04-10 16:21 | 21.09340 | -86.79534 | 37145 ft | 418 kts | 225° |
| 2026-04-10 16:22 | 21.04904 | -86.83505 | 37151 ft | 422 kts | 218° |
| 2026-04-10 16:22 | 20.99475 | -86.86062 | 37143 ft | 436 kts | 198° |
| 2026-04-10 16:23 | 20.93385 | -86.86820 | 37138 ft | 442 kts | 191° |
| 2026-04-10 16:23 | 20.87259 | -86.87440 | 37130 ft | 442 kts | 191° |
| 2026-04-10 16:24 | 20.81127 | -86.88076 | 37125 ft | 442 kts | 192° |
| 2026-04-10 16:24 | 20.74998 | -86.88712 | 37120 ft | 443 kts | 192° |
| 2026-04-10 16:25 | 20.68866 | -86.89347 | 37125 ft | 443 kts | 191° |
| 2026-04-10 16:25 | 20.62729 | -86.89977 | 37131 ft | 443 kts | 191° |
| 2026-04-10 16:26 | 20.56591 | -86.90598 | 37139 ft | 443 kts | 191° |
| 2026-04-10 16:26 | 20.50530 | -86.91537 | 37143 ft | 435 kts | 202° |
| 2026-04-10 16:27 | 20.45010 | -86.93958 | 37145 ft | 428 kts | 210° |
| 2026-04-10 16:27 | 20.39578 | -86.96580 | 37142 ft | 428 kts | 210° |
| 2026-04-10 16:28 | 20.34150 | -86.99184 | 37140 ft | 428 kts | 210° |
| 2026-04-10 16:28 | 20.28717 | -87.01789 | 37135 ft | 428 kts | 210° |
| 2026-04-10 16:29 | 20.23287 | -87.04395 | 37134 ft | 428 kts | 210° |
| 2026-04-10 16:29 | 20.17854 | -87.07000 | 37128 ft | 428 kts | 210° |
| 2026-04-10 16:30 | 20.12422 | -87.09610 | 37123 ft | 428 kts | 210° |
| 2026-04-10 16:30 | 20.06996 | -87.12213 | 37121 ft | 428 kts | 210° |
| 2026-04-10 16:31 | 20.01567 | -87.14814 | 37122 ft | 428 kts | 209° |
| 2026-04-10 16:31 | 19.96141 | -87.17407 | 37115 ft | 428 kts | 209° |
| 2026-04-10 16:32 | 19.90713 | -87.20000 | 37114 ft | 428 kts | 209° |
| 2026-04-10 16:32 | 19.85287 | -87.22593 | 37114 ft | 428 kts | 209° |
| 2026-04-10 16:33 | 19.79856 | -87.25186 | 37113 ft | 428 kts | 209° |
| 2026-04-10 16:33 | 19.74433 | -87.27783 | 37111 ft | 428 kts | 209° |
| 2026-04-10 16:34 | 19.68999 | -87.30376 | 37115 ft | 428 kts | 209° |
| 2026-04-10 16:34 | 19.63563 | -87.32968 | 37115 ft | 428 kts | 209° |
| 2026-04-10 16:35 | 19.58163 | -87.35534 | 37109 ft | 428 kts | 209° |
| 2026-04-10 16:35 | 19.52732 | -87.38115 | 37112 ft | 428 kts | 209° |
| 2026-04-10 16:36 | 19.47302 | -87.40700 | 37114 ft | 428 kts | 209° |
| 2026-04-10 16:36 | 19.41865 | -87.43289 | 37112 ft | 428 kts | 209° |
| 2026-04-10 16:37 | 19.36423 | -87.45873 | 37116 ft | 429 kts | 209° |
| 2026-04-10 16:37 | 19.30975 | -87.48447 | 37118 ft | 429 kts | 209° |
| 2026-04-10 16:38 | 19.25527 | -87.51025 | 37121 ft | 429 kts | 209° |
| 2026-04-10 16:38 | 19.20995 | -87.53169 | 37117 ft | 429 kts | 209° |
| 2026-04-10 16:38 | 19.17346 | -87.54896 | 36657 ft | 430 kts | 209° |
| 2026-04-10 16:39 | 19.15539 | -87.55752 | 36296 ft | 429 kts | 209° |
| 2026-04-10 16:39 | 19.12810 | -87.57044 | 35764 ft | 430 kts | 209° |
| 2026-04-10 16:39 | 19.10082 | -87.58335 | 35241 ft | 430 kts | 209° |
| 2026-04-10 16:39 | 19.07345 | -87.59628 | 34729 ft | 432 kts | 208° |
| 2026-04-10 16:40 | 19.04603 | -87.60925 | 34226 ft | 433 kts | 208° |
| 2026-04-10 16:40 | 19.01851 | -87.62229 | 33677 ft | 434 kts | 208° |
| 2026-04-10 16:40 | 18.99087 | -87.63538 | 33107 ft | 437 kts | 208° |
| 2026-04-10 16:40 | 18.96306 | -87.64850 | 32549 ft | 440 kts | 208° |
| 2026-04-10 16:41 | 18.93500 | -87.66171 | 32005 ft | 443 kts | 207° |
| 2026-04-10 16:41 | 18.90676 | -87.67500 | 31474 ft | 446 kts | 207° |
| 2026-04-10 16:41 | 18.87833 | -87.68840 | 30948 ft | 449 kts | 207° |
| 2026-04-10 16:41 | 18.84968 | -87.70191 | 30441 ft | 453 kts | 207° |
| 2026-04-10 16:42 | 18.82080 | -87.71550 | 29920 ft | 456 kts | 206° |
| 2026-04-10 16:42 | 18.79188 | -87.72910 | 29384 ft | 454 kts | 206° |
| 2026-04-10 16:42 | 18.76315 | -87.74264 | 28851 ft | 451 kts | 206° |
| 2026-04-10 16:42 | 18.73459 | -87.75609 | 28337 ft | 448 kts | 206° |
| 2026-04-10 16:43 | 18.70627 | -87.76939 | 27835 ft | 444 kts | 206° |
| 2026-04-10 16:43 | 18.67812 | -87.78262 | 27329 ft | 441 kts | 206° |
| 2026-04-10 16:43 | 18.65020 | -87.79571 | 26835 ft | 438 kts | 206° |
| 2026-04-10 16:43 | 18.62246 | -87.80868 | 26353 ft | 435 kts | 206° |
| 2026-04-10 16:44 | 18.59492 | -87.82153 | 25880 ft | 431 kts | 205° |
| 2026-04-10 16:44 | 18.56760 | -87.83433 | 25410 ft | 429 kts | 205° |
| 2026-04-10 16:44 | 18.54044 | -87.84712 | 24950 ft | 426 kts | 205° |
| 2026-04-10 16:44 | 18.51354 | -87.85980 | 24507 ft | 423 kts | 205° |
| 2026-04-10 16:45 | 18.48706 | -87.87223 | 24066 ft | 420 kts | 205° |
| 2026-04-10 16:45 | 18.46013 | -87.88485 | 23613 ft | 417 kts | 205° |
| 2026-04-10 16:45 | 18.43366 | -87.89724 | 23088 ft | 415 kts | 205° |
| 2026-04-10 16:45 | 18.40738 | -87.90955 | 22578 ft | 412 kts | 205° |
| 2026-04-10 16:46 | 18.38159 | -87.92162 | 22067 ft | 410 kts | 205° |
| 2026-04-10 16:46 | 18.35564 | -87.93380 | 21583 ft | 407 kts | 205° |
| 2026-04-10 16:46 | 18.32980 | -87.94590 | 21083 ft | 405 kts | 205° |
| 2026-04-10 16:46 | 18.30412 | -87.95789 | 20603 ft | 403 kts | 205° |
| 2026-04-10 16:47 | 18.27858 | -87.96982 | 20128 ft | 401 kts | 205° |
| 2026-04-10 16:47 | 18.25321 | -87.98170 | 19651 ft | 398 kts | 205° |
| 2026-04-10 16:47 | 18.22792 | -87.99354 | 19201 ft | 397 kts | 204° |
| 2026-04-10 16:47 | 18.20274 | -88.00529 | 18744 ft | 396 kts | 204° |
| 2026-04-10 16:48 | 18.17763 | -88.01702 | 18285 ft | 395 kts | 204° |
| 2026-04-10 16:48 | 18.15257 | -88.02876 | 17774 ft | 393 kts | 204° |
| 2026-04-10 16:48 | 18.12765 | -88.04052 | 17271 ft | 392 kts | 205° |
| 2026-04-10 16:48 | 18.10290 | -88.05238 | 16774 ft | 390 kts | 205° |
| 2026-04-10 16:49 | 18.07825 | -88.06424 | 16286 ft | 389 kts | 205° |
| 2026-04-10 16:49 | 18.05371 | -88.07607 | 15810 ft | 388 kts | 205° |
| 2026-04-10 16:49 | 18.02923 | -88.08791 | 15330 ft | 386 kts | 205° |
| 2026-04-10 16:49 | 18.00490 | -88.09966 | 14869 ft | 384 kts | 205° |
| 2026-04-10 16:50 | 17.98067 | -88.11135 | 14401 ft | 382 kts | 205° |
| 2026-04-10 16:50 | 17.95660 | -88.12299 | 13961 ft | 380 kts | 205° |
| 2026-04-10 16:50 | 17.93261 | -88.13445 | 13457 ft | 378 kts | 204° |
| 2026-04-10 16:50 | 17.90865 | -88.14567 | 12952 ft | 375 kts | 204° |
| 2026-04-10 16:51 | 17.88482 | -88.15665 | 12488 ft | 372 kts | 203° |
| 2026-04-10 16:51 | 17.86116 | -88.16743 | 12025 ft | 370 kts | 203° |
| 2026-04-10 16:51 | 17.83765 | -88.17810 | 11570 ft | 367 kts | 203° |
| 2026-04-10 16:51 | 17.81429 | -88.18870 | 11125 ft | 364 kts | 203° |
| 2026-04-10 16:52 | 17.79115 | -88.19922 | 10680 ft | 361 kts | 202° |
| 2026-04-10 16:52 | 17.76833 | -88.20962 | 10253 ft | 351 kts | 202° |
| 2026-04-10 16:52 | 17.74653 | -88.21955 | 10014 ft | 332 kts | 202° |
| 2026-04-10 16:52 | 17.72650 | -88.23018 | 9762 ft | 315 kts | 216° |
| 2026-04-10 16:53 | 17.71232 | -88.24649 | 9508 ft | 305 kts | 239° |
| 2026-04-10 16:53 | 17.70341 | -88.26648 | 9255 ft | 302 kts | 251° |
| 2026-04-10 16:53 | 17.69698 | -88.28742 | 9015 ft | 301 kts | 253° |
| 2026-04-10 16:53 | 17.69086 | -88.30831 | 8764 ft | 299 kts | 253° |
| 2026-04-10 16:54 | 17.68477 | -88.32913 | 8520 ft | 298 kts | 253° |
| 2026-04-10 16:54 | 17.67872 | -88.34983 | 8271 ft | 296 kts | 253° |
| 2026-04-10 16:54 | 17.67271 | -88.37044 | 8030 ft | 295 kts | 253° |
| 2026-04-10 16:54 | 17.66673 | -88.39096 | 7787 ft | 294 kts | 253° |
| 2026-04-10 16:55 | 17.66074 | -88.41140 | 7544 ft | 292 kts | 253° |
| 2026-04-10 16:55 | 17.65483 | -88.43171 | 7294 ft | 291 kts | 253° |
| 2026-04-10 16:55 | 17.64895 | -88.45199 | 6968 ft | 290 kts | 253° |
| 2026-04-10 16:55 | 17.64310 | -88.47215 | 6647 ft | 287 kts | 253° |
| 2026-04-10 16:56 | 17.63773 | -88.49218 | 6302 ft | 284 kts | 257° |
| 2026-04-10 16:56 | 17.63349 | -88.51236 | 5983 ft | 283 kts | 258° |
| 2026-04-10 16:56 | 17.62943 | -88.53234 | 5695 ft | 279 kts | 258° |
| 2026-04-10 16:56 | 17.62396 | -88.55173 | 5391 ft | 277 kts | 242° |
| 2026-04-10 16:57 | 17.61157 | -88.56673 | 5100 ft | 273 kts | 213° |
| 2026-04-10 16:57 | 17.59413 | -88.57382 | 4799 ft | 269 kts | 185° |
| 2026-04-10 16:57 | 17.57589 | -88.57171 | 4508 ft | 265 kts | 162° |
| 2026-04-10 16:57 | 17.55847 | -88.56557 | 4214 ft | 264 kts | 159° |
| 2026-04-10 16:58 | 17.54136 | -88.55907 | 4020 ft | 259 kts | 158° |
| 2026-04-10 16:58 | 17.52489 | -88.55276 | 3997 ft | 245 kts | 158° |
| 2026-04-10 16:58 | 17.50971 | -88.54630 | 4007 ft | 226 kts | 149° |
| 2026-04-10 16:58 | 17.49893 | -88.53571 | 3898 ft | 203 kts | 122° |
| 2026-04-10 16:59 | 17.49400 | -88.52246 | 3748 ft | 193 kts | 97° |
| 2026-04-10 16:59 | 17.49468 | -88.50866 | 3553 ft | 189 kts | 76° |
| 2026-04-10 16:59 | 17.49768 | -88.49530 | 3333 ft | 188 kts | 76° |
| 2026-04-10 16:59 | 17.50061 | -88.48219 | 3090 ft | 182 kts | 75° |
| 2026-04-10 17:00 | 17.50342 | -88.46953 | 2863 ft | 176 kts | 76° |
| 2026-04-10 17:00 | 17.50614 | -88.45722 | 2648 ft | 172 kts | 75° |
| 2026-04-10 17:00 | 17.50883 | -88.44509 | 2425 ft | 170 kts | 76° |
| 2026-04-10 17:00 | 17.51149 | -88.43310 | 2199 ft | 166 kts | 76° |
| 2026-04-10 17:01 | 17.51399 | -88.42179 | 2014 ft | 156 kts | 76° |
| 2026-04-10 17:01 | 17.51641 | -88.41087 | 1803 ft | 152 kts | 76° |
| 2026-04-10 17:01 | 17.51880 | -88.40009 | 1603 ft | 152 kts | 75° |
| 2026-04-10 17:01 | 17.52117 | -88.38937 | 1409 ft | 151 kts | 76° |
| 2026-04-10 17:02 | 17.52336 | -88.37949 | 1222 ft | 149 kts | 76° |
| 2026-04-10 17:02 | 17.52570 | -88.36890 | 1036 ft | 151 kts | 76° |
| 2026-04-10 17:02 | 17.52809 | -88.35828 | 845 ft | 149 kts | 76° |
| 2026-04-10 17:02 | 17.53048 | -88.34781 | 605 ft | 146 kts | 75° |
| 2026-04-10 17:03 | 17.53270 | -88.33734 | 423 ft | 149 kts | 77° |
| 2026-04-10 17:03 | 17.53508 | -88.32682 | 213 ft | 147 kts | 78° |
| 2026-04-10 17:03 | 17.53731 | -88.31641 | 48 ft | 145 kts | 78° |
| 2026-04-10 17:03 | 17.53935 | -88.30703 | 25 ft | 118 kts | 77° |
| 2026-04-10 17:04 | 17.54060 | -88.30129 | 23 ft | 42 kts | 77° |
| 2026-04-10 17:04 | 17.54101 | -88.29938 | 23 ft | 12 kts | 88° |
| 2026-04-10 17:04 | 17.54090 | -88.29858 | 23 ft | 10 kts | 67° |
| 2026-04-10 17:04 | 17.54123 | -88.29875 | 23 ft | 8 kts | 264° |
| 2026-04-10 17:05 | 17.54100 | -88.29962 | 23 ft | 15 kts | 255° |
| 2026-04-10 17:05 | 17.54073 | -88.30087 | 24 ft | 20 kts | 257° |
| 2026-04-10 17:05 | 17.54042 | -88.30224 | 26 ft | 19 kts | 256° |
| 2026-04-10 17:05 | 17.54012 | -88.30357 | 26 ft | 19 kts | 256° |
| 2026-04-10 17:06 | 17.53981 | -88.30495 | 25 ft | 19 kts | 256° |
| 2026-04-10 17:06 | 17.53951 | -88.30629 | 24 ft | 18 kts | 261° |
| 2026-04-10 17:06 | 17.53925 | -88.30751 | 28 ft | 14 kts | 256° |
| 2026-04-10 17:06 | 17.53904 | -88.30842 | 24 ft | 10 kts | 253° |
| 2026-04-10 17:07 | 17.53863 | -88.30874 | 24 ft | 7 kts | 182° |
| 2026-04-10 17:07 | 17.53835 | -88.30868 | 24 ft | 2 kts | 165° |
| 2026-04-10 17:07 | 17.53824 | -88.30865 | 24 ft | 1 kts | 165° |
| 2026-04-10 17:07 | 17.53817 | -88.30863 | 24 ft | 1 kts | 167° |
| 2026-04-10 17:08 | 17.53816 | -88.30863 | 24 ft | 0 kts | 167° |
| 2026-04-10 17:08 | 17.53805 | -88.30860 | 24 ft | 6 kts | 167° |
| 2026-04-10 17:08 | 17.53754 | -88.30848 | 25 ft | 7 kts | 167° |
| 2026-04-10 17:08 | 17.53719 | -88.30840 | 24 ft | 4 kts | 167° |
| 2026-04-10 17:09 | 17.53694 | -88.30819 | 24 ft | 6 kts | 113° |
| 2026-04-10 17:09 | 17.53698 | -88.30784 | 24 ft | 4 kts | 75° |
| 2026-04-10 17:09 | 17.53701 | -88.30768 | 24 ft | 2 kts | 76° |
| 2026-04-10 17:09 | 17.53705 | -88.30752 | 24 ft | 1 kts | 77° |
| 2026-04-10 17:10 | 17.53705 | -88.30749 | 24 ft | 0 kts | 77° |
| 2026-04-10 17:10 | 17.53706 | -88.30748 | 24 ft | 0 kts | 77° |